createdAt,value
2016-11-19T00:00:41.238Z,-1.92
2016-11-19T00:01:41.228Z,-2.11
2016-11-19T00:02:41.205Z,-1.92
2016-11-19T00:03:41.217Z,-1.86
2016-11-19T00:04:41.167Z,-1.95
2016-11-19T00:05:41.172Z,-2.06
2016-11-19T00:06:41.151Z,-1.88
2016-11-19T00:07:41.129Z,-1.68
2016-11-19T00:08:41.135Z,-1.65
2016-11-19T00:09:41.125Z,-1.47
2016-11-19T00:10:41.099Z,-1.41
2016-11-19T00:11:41.077Z,-1.36
2016-11-19T00:12:41.050Z,-1.33
2016-11-19T00:13:41.092Z,-1.31
2016-11-19T00:14:41.013Z,-1.38
2016-11-19T00:15:41.001Z,-1.43
2016-11-19T00:16:40.977Z,-1.51
2016-11-19T00:17:40.963Z,-1.61
2016-11-19T00:18:40.951Z,-1.65
2016-11-19T00:19:40.918Z,-1.65
2016-11-19T00:20:40.912Z,-1.57
2016-11-19T00:21:40.881Z,-1.56
2016-11-19T00:22:40.882Z,-1.47
2016-11-19T00:23:40.852Z,-1.54
2016-11-19T00:24:40.841Z,-1.56
2016-11-19T00:25:40.816Z,-1.53
2016-11-19T00:26:40.829Z,-1.54
2016-11-19T00:27:40.790Z,-1.62
2016-11-19T00:29:38.535Z,-1.51
2016-11-19T00:29:47.149Z,-1.57
2016-11-19T00:30:47.105Z,-1.53
2016-11-19T00:31:47.085Z,-1.41
2016-11-19T00:32:47.073Z,-1.43
2016-11-19T00:33:47.051Z,-1.53
2016-11-19T00:34:47.073Z,-1.68
2016-11-19T00:35:47.019Z,-1.65
2016-11-19T00:36:46.998Z,-1.47
2016-11-19T00:37:46.985Z,-1.31
2016-11-19T00:38:46.964Z,-1.46
2016-11-19T00:39:46.952Z,-1.39
2016-11-19T00:40:46.931Z,-1.36
2016-11-19T00:41:46.912Z,-1.46
2016-11-19T00:42:46.898Z,-1.59
2016-11-19T00:43:46.880Z,-1.65
2016-11-19T00:44:46.864Z,-1.65
2016-11-19T00:45:46.855Z,-1.78
2016-11-19T00:46:46.828Z,-1.54
2016-11-19T00:47:46.814Z,-1.51
2016-11-19T00:48:46.810Z,-1.38
2016-11-19T00:49:46.816Z,-1.43
2016-11-19T00:50:46.796Z,-1.57
2016-11-19T00:51:46.764Z,-1.72
2016-11-19T00:52:46.761Z,-1.56
2016-11-19T00:53:46.729Z,-1.41
2016-11-19T00:54:46.718Z,-1.41
2016-11-19T00:55:46.680Z,-1.32
2016-11-19T00:56:46.695Z,-1.28
2016-11-19T00:57:46.655Z,-1.36
2016-11-19T00:58:46.674Z,-1.56
2016-11-19T00:59:46.628Z,-1.43
2016-11-19T01:00:46.613Z,-1.38
2016-11-19T01:01:46.605Z,-1.43
2016-11-19T01:02:46.570Z,-1.33
2016-11-19T01:03:46.556Z,-1.39
2016-11-19T01:04:46.541Z,-1.32
2016-11-19T01:05:46.535Z,-1.5
2016-11-19T01:06:46.510Z,-1.5
2016-11-19T01:07:46.500Z,-1.38
2016-11-19T01:08:46.468Z,-1.33
2016-11-19T01:09:46.465Z,-1.28
2016-11-19T01:10:46.425Z,-1.26
2016-11-19T01:11:46.424Z,-1.31
2016-11-19T01:12:46.400Z,-1.39
2016-11-19T01:13:46.390Z,-1.38
2016-11-19T01:14:46.372Z,-1.41
2016-11-19T01:15:46.352Z,-1.36
2016-11-19T01:16:46.343Z,-1.35
2016-11-19T01:17:46.315Z,-1.51
2016-11-19T01:18:46.300Z,-1.31
2016-11-19T01:19:46.300Z,-1.2
2016-11-19T01:20:46.282Z,-1.23
2016-11-19T01:21:46.260Z,-1.28
2016-11-19T01:22:46.235Z,-1.35
2016-11-19T01:23:46.231Z,-1.32
2016-11-19T01:24:46.200Z,-1.32
2016-11-19T01:25:46.190Z,-1.38
2016-11-19T01:26:46.174Z,-1.32
2016-11-19T01:27:46.164Z,-1.35
2016-11-19T01:28:46.139Z,-1.32
2016-11-19T01:29:46.129Z,-1.33
2016-11-19T01:30:46.105Z,-1.41
2016-11-19T01:31:46.101Z,-1.31
2016-11-19T01:32:46.075Z,-1.33
2016-11-19T01:33:46.051Z,-1.38
2016-11-19T01:34:46.023Z,-1.41
2016-11-19T01:35:46.009Z,-1.39
2016-11-19T01:36:45.987Z,-1.28
2016-11-19T01:37:45.975Z,-1.31
2016-11-19T01:38:45.972Z,-1.36
2016-11-19T01:39:45.928Z,-1.31
2016-11-19T01:40:45.965Z,-1.33
2016-11-19T01:41:45.912Z,-1.35
2016-11-19T01:42:45.901Z,-1.29
2016-11-19T01:43:45.895Z,-1.21
2016-11-19T01:44:45.879Z,-1.2
2016-11-19T01:45:45.851Z,-1.23
2016-11-19T01:46:45.848Z,-1.41
2016-11-19T01:47:45.806Z,-1.47
2016-11-19T01:48:45.790Z,-1.41
2016-11-19T01:49:45.764Z,-1.44
2016-11-19T01:50:45.769Z,-1.15
2016-11-19T01:51:45.750Z,-1.17
2016-11-19T01:52:45.741Z,-0.97
2016-11-19T01:53:45.710Z,-0.99
2016-11-19T01:54:45.677Z,-0.89
2016-11-19T01:55:45.672Z,-0.96
2016-11-19T01:56:45.664Z,-0.95
2016-11-19T01:57:45.646Z,-0.92
2016-11-19T01:58:45.623Z,-0.78
2016-11-19T01:59:45.609Z,-0.78
2016-11-19T02:00:45.606Z,-0.71
2016-11-19T02:01:45.566Z,-0.74
2016-11-19T02:02:45.558Z,-0.78
2016-11-19T02:03:45.556Z,-0.93
2016-11-19T02:04:45.555Z,-0.97
2016-11-19T02:05:45.513Z,-1.03
2016-11-19T02:06:45.484Z,-1
2016-11-19T02:07:45.485Z,-0.92
2016-11-19T02:08:45.444Z,-0.96
2016-11-19T02:09:45.429Z,-0.92
2016-11-19T02:10:45.420Z,-0.95
2016-11-19T02:11:45.402Z,-0.96
2016-11-19T02:12:45.416Z,-0.85
2016-11-19T02:13:45.369Z,-1
2016-11-19T02:14:45.356Z,-0.93
2016-11-19T02:15:45.350Z,-0.83
2016-11-19T02:16:45.648Z,-0.95
2016-11-19T02:17:45.289Z,-0.85
2016-11-19T02:18:45.304Z,-0.93
2016-11-19T02:19:45.275Z,-0.93
2016-11-19T02:20:45.276Z,-1
2016-11-19T02:21:45.243Z,-0.93
2016-11-19T02:22:45.216Z,-1.11
2016-11-19T02:23:45.212Z,-1.08
2016-11-19T02:24:45.183Z,-1.38
2016-11-19T02:25:45.182Z,-1.32
2016-11-19T02:26:45.143Z,-1.29
2016-11-19T02:27:45.144Z,-1.18
2016-11-19T02:28:45.135Z,-1.21
2016-11-19T02:29:45.102Z,-1.29
2016-11-19T02:30:45.095Z,-1.26
2016-11-19T02:31:45.062Z,-1.26
2016-11-19T02:32:45.065Z,-1.36
2016-11-19T02:33:45.052Z,-1.25
2016-11-19T02:34:45.022Z,-1.15
2016-11-19T02:35:45.002Z,-1.23
2016-11-19T02:36:44.986Z,-1.2
2016-11-19T02:37:44.965Z,-1.18
2016-11-19T02:38:44.952Z,-1.21
2016-11-19T02:39:44.941Z,-1.18
2016-11-19T02:40:44.907Z,-1.31
2016-11-19T02:41:44.911Z,-1.23
2016-11-19T02:42:44.885Z,-1.35
2016-11-19T02:43:44.887Z,-1.41
2016-11-19T02:44:44.873Z,-1.75
2016-11-19T02:45:44.834Z,-1.65
2016-11-19T02:46:44.838Z,-1.61
2016-11-19T02:47:44.809Z,-1.64
2016-11-19T02:48:44.777Z,-1.46
2016-11-19T02:49:44.772Z,-1.44
2016-11-19T02:50:44.754Z,-1.39
2016-11-19T02:51:44.753Z,-1.28
2016-11-19T02:52:44.731Z,-1.32
2016-11-19T02:53:44.687Z,-1.44
2016-11-19T02:54:44.680Z,-1.53
2016-11-19T02:55:44.655Z,-1.51
2016-11-19T02:56:44.653Z,-1.56
2016-11-19T02:57:44.615Z,-1.57
2016-11-19T02:58:44.609Z,-1.68
2016-11-19T02:59:44.617Z,-1.56
2016-11-19T03:00:44.564Z,-1.61
2016-11-19T03:01:44.549Z,-1.93
2016-11-19T03:02:44.549Z,-2.08
2016-11-19T03:03:44.544Z,-2.22
2016-11-19T03:04:44.513Z,-2.65
2016-11-19T03:05:44.504Z,-2.61
2016-11-19T03:06:44.485Z,-2.37
2016-11-19T03:07:44.446Z,-2.25
2016-11-19T03:08:44.455Z,-2.11
2016-11-19T03:09:44.426Z,-2.06
2016-11-19T03:10:44.410Z,-2.21
2016-11-19T03:11:44.393Z,-2.35
2016-11-19T03:12:44.392Z,-2.37
2016-11-19T03:13:44.346Z,-2.47
2016-11-19T03:14:44.358Z,-2.44
2016-11-19T03:15:44.341Z,-2.37
2016-11-19T03:16:44.296Z,-2.22
2016-11-19T03:17:44.286Z,-2.08
2016-11-19T03:18:44.286Z,-1.96
2016-11-19T03:19:44.254Z,-1.82
2016-11-19T03:20:44.256Z,-1.65
2016-11-19T03:21:44.239Z,-1.7
2016-11-19T03:22:44.224Z,-1.72
2016-11-19T03:23:44.206Z,-1.71
2016-11-19T03:24:44.175Z,-1.7
2016-11-19T03:25:44.154Z,-1.61
2016-11-19T03:26:44.142Z,-1.57
2016-11-19T03:27:44.120Z,-1.67
2016-11-19T03:28:44.101Z,-1.8
2016-11-19T03:29:44.088Z,-1.95
2016-11-19T03:30:44.064Z,-2.37
2016-11-19T03:31:44.062Z,-2.37
2016-11-19T03:32:44.036Z,-2.32
2016-11-19T03:33:44.027Z,-2.48
2016-11-19T03:34:44.011Z,-2.59
2016-11-19T03:35:43.993Z,-2.53
2016-11-19T03:36:43.963Z,-2.4
2016-11-19T03:37:43.947Z,-2.29
2016-11-19T03:38:43.933Z,-2.41
2016-11-19T03:39:43.911Z,-2.41
2016-11-19T03:40:43.908Z,-2.26
2016-11-19T03:41:43.864Z,-2.24
2016-11-19T03:42:43.858Z,-2.26
2016-11-19T03:43:43.830Z,-2.14
2016-11-19T03:44:43.830Z,-2.16
2016-11-19T03:45:43.813Z,-2.33
2016-11-19T03:46:43.798Z,-2.35
2016-11-19T03:47:43.784Z,-2.61
2016-11-19T03:48:43.747Z,-2.68
2016-11-19T03:49:43.744Z,-2.61
2016-11-19T03:50:43.729Z,-2.56
2016-11-19T03:51:43.704Z,-2.65
2016-11-19T03:52:43.690Z,-2.65
2016-11-19T03:53:43.686Z,-2.58
2016-11-19T03:54:43.638Z,-2.51
2016-11-19T03:55:43.636Z,-2.35
2016-11-19T03:56:43.619Z,-2.37
2016-11-19T03:57:43.584Z,-2.37
2016-11-19T03:58:43.588Z,-2.38
2016-11-19T03:59:43.574Z,-2.4
2016-11-19T04:00:43.562Z,-2.33
2016-11-19T04:01:43.511Z,-2.32
2016-11-19T04:02:43.506Z,-2.41
2016-11-19T04:03:43.511Z,-2.35
2016-11-19T04:04:43.491Z,-2.37
2016-11-19T04:05:43.448Z,-2.46
2016-11-19T04:06:43.435Z,-2.44
2016-11-19T04:07:43.438Z,-2.55
2016-11-19T04:08:43.394Z,-2.4
2016-11-19T04:09:43.374Z,-2.35
2016-11-19T04:10:43.416Z,-2.5
2016-11-19T04:11:43.363Z,-2.33
2016-11-19T04:12:43.331Z,-2.32
2016-11-19T04:13:43.319Z,-2.29
2016-11-19T04:14:43.293Z,-2.25
2016-11-19T04:15:43.264Z,-2.37
2016-11-19T04:16:43.265Z,-2.35
2016-11-19T04:17:43.236Z,-2.29
2016-11-19T04:18:43.211Z,-2.32
2016-11-19T04:19:43.220Z,-2.24
2016-11-19T04:20:43.194Z,-2.24
2016-11-19T04:21:43.174Z,-2.21
2016-11-19T04:22:43.160Z,-2.25
2016-11-19T04:23:43.126Z,-2.25
2016-11-19T04:24:43.106Z,-2.22
2016-11-19T04:25:43.083Z,-2.19
2016-11-19T04:26:43.087Z,-2.21
2016-11-19T04:27:43.057Z,-2.25
2016-11-19T04:28:43.039Z,-2.22
2016-11-19T04:29:43.034Z,-2.32
2016-11-19T04:30:43.020Z,-2.33
2016-11-19T04:31:42.999Z,-2.24
2016-11-19T04:32:42.976Z,-2.43
2016-11-19T04:33:42.972Z,-2.38
2016-11-19T04:34:42.941Z,-2.37
2016-11-19T04:35:42.940Z,-2.29
2016-11-19T04:36:42.927Z,-2.22
2016-11-19T04:37:42.924Z,-2.21
2016-11-19T04:38:42.893Z,-2.32
2016-11-19T04:39:42.853Z,-2.25
2016-11-19T04:40:42.843Z,-2.32
2016-11-19T04:41:42.811Z,-2.18
2016-11-19T04:42:42.799Z,-2.24
2016-11-19T04:43:42.789Z,-2.26
2016-11-19T04:44:42.764Z,-2.37
2016-11-19T04:45:42.746Z,-2.35
2016-11-19T04:46:42.739Z,-2.29
2016-11-19T04:47:42.713Z,-2.22
2016-11-19T04:48:42.714Z,-2.24
2016-11-19T04:49:42.676Z,-2.24
2016-11-19T04:50:42.647Z,-2.25
2016-11-19T04:51:42.654Z,-2.16
2016-11-19T04:52:42.636Z,-2.06
2016-11-19T04:53:42.609Z,-2.29
2016-11-19T04:54:42.587Z,-2.28
2016-11-19T04:55:42.578Z,-2.24
2016-11-19T04:56:42.569Z,-2.24
2016-11-19T04:57:42.538Z,-2.16
2016-11-19T04:58:42.527Z,-2.25
2016-11-19T04:59:42.504Z,-2.07
2016-11-19T05:00:42.498Z,-2.07
2016-11-19T05:01:42.462Z,-2.04
2016-11-19T05:02:42.437Z,-1.95
2016-11-19T05:03:42.440Z,-2.01
2016-11-19T05:04:42.414Z,-2.06
2016-11-19T05:05:42.418Z,-2.07
2016-11-19T05:06:42.371Z,-2.01
2016-11-19T05:07:42.379Z,-2.04
2016-11-19T05:08:42.366Z,-1.92
2016-11-19T05:09:42.348Z,-2.11
2016-11-19T05:10:42.334Z,-2.07
2016-11-19T05:11:42.284Z,-2.04
2016-11-19T05:12:42.264Z,-2.1
2016-11-19T05:13:42.247Z,-1.9
2016-11-19T05:14:42.243Z,-1.88
2016-11-19T05:15:42.234Z,-1.85
2016-11-19T05:16:42.240Z,-1.83
2016-11-19T05:17:42.203Z,-1.86
2016-11-19T05:18:42.164Z,-1.83
2016-11-19T05:19:42.173Z,-1.75
2016-11-19T05:20:42.144Z,-1.7
2016-11-19T05:21:42.125Z,-1.85
2016-11-19T05:22:42.106Z,-1.75
2016-11-19T05:23:42.105Z,-1.7
2016-11-19T05:24:42.065Z,-1.67
2016-11-19T05:25:42.059Z,-1.67
2016-11-19T05:26:42.049Z,-1.7
2016-11-19T05:27:42.032Z,-1.72
2016-11-19T05:28:41.984Z,-1.68
2016-11-19T05:29:42.202Z,-1.67
2016-11-19T05:30:41.984Z,-1.71
2016-11-19T05:31:41.941Z,-1.71
2016-11-19T05:32:41.929Z,-1.8
2016-11-19T05:33:41.893Z,-1.7
2016-11-19T05:34:41.894Z,-1.74
2016-11-19T05:35:41.881Z,-1.88
2016-11-19T05:36:41.858Z,-1.93
2016-11-19T05:37:41.851Z,-1.9
2016-11-19T05:38:41.821Z,-1.89
2016-11-19T05:39:41.791Z,-1.95
2016-11-19T05:40:41.799Z,-1.95
2016-11-19T05:41:41.794Z,-1.93
2016-11-19T05:42:41.755Z,-2.04
2016-11-19T05:43:41.733Z,-1.89
2016-11-19T05:44:41.724Z,-1.95
2016-11-19T05:45:41.689Z,-1.96
2016-11-19T05:46:41.689Z,-2.03
2016-11-19T05:47:41.679Z,-1.98
2016-11-19T05:48:41.636Z,-1.88
2016-11-19T05:49:41.621Z,-1.92
2016-11-19T05:50:41.644Z,-1.9
2016-11-19T05:51:41.595Z,-1.95
2016-11-19T05:52:41.595Z,-1.95
2016-11-19T05:53:41.562Z,-1.92
2016-11-19T05:54:41.547Z,-1.93
2016-11-19T05:55:41.520Z,-1.92
2016-11-19T05:56:41.513Z,-1.89
2016-11-19T05:57:41.494Z,-1.9
2016-11-19T05:58:41.455Z,-1.95
2016-11-19T05:59:41.461Z,-1.93
2016-11-19T06:00:41.452Z,-1.92
2016-11-19T06:01:41.417Z,-1.95
2016-11-19T06:02:41.419Z,-1.9
2016-11-19T06:03:41.388Z,-2.04
2016-11-19T06:04:41.368Z,-2.07
2016-11-19T06:05:41.330Z,-2.18
2016-11-19T06:06:41.345Z,-2.06
2016-11-19T06:07:41.319Z,-2.21
2016-11-19T06:08:41.285Z,-2.1
2016-11-19T06:09:41.267Z,-2.13
2016-11-19T06:10:41.257Z,-2.08
2016-11-19T06:11:41.226Z,-2.07
2016-11-19T06:12:41.220Z,-2.04
2016-11-19T06:13:41.204Z,-2.13
2016-11-19T06:14:41.205Z,-2.06
2016-11-19T06:15:41.180Z,-2
2016-11-19T06:16:41.158Z,-2.08
2016-11-19T06:17:41.121Z,-2.08
2016-11-19T06:18:41.128Z,-2.22
2016-11-19T06:19:41.094Z,-2.22
2016-11-19T06:20:41.082Z,-2.11
2016-11-19T06:21:41.059Z,-2.06
2016-11-19T06:22:41.050Z,-2.01
2016-11-19T06:23:41.039Z,-2.08
2016-11-19T06:24:41.006Z,-2.07
2016-11-19T06:25:40.980Z,-2.19
2016-11-19T06:26:40.970Z,-2.1
2016-11-19T06:27:41.282Z,-2.01
2016-11-19T06:28:40.956Z,-2.01
2016-11-19T06:29:40.923Z,-2.03
2016-11-19T06:30:40.880Z,-1.93
2016-11-19T06:31:40.878Z,-2.03
2016-11-19T06:32:41.179Z,-2.08
2016-11-19T06:33:40.847Z,-1.96
2016-11-19T06:34:40.843Z,-1.95
2016-11-19T06:35:40.793Z,-1.96
2016-11-19T06:36:40.787Z,-1.92
2016-11-19T06:37:40.757Z,-1.89
2016-11-19T06:38:40.772Z,-1.9
2016-11-19T06:39:40.731Z,-1.93
2016-11-19T06:40:40.722Z,-2.07
2016-11-19T06:41:40.683Z,-2.03
2016-11-19T06:42:40.705Z,-1.89
2016-11-19T06:43:40.683Z,-1.92
2016-11-19T06:44:40.656Z,-1.88
2016-11-19T06:45:40.634Z,-1.86
2016-11-19T06:46:40.612Z,-1.82
2016-11-19T06:47:40.582Z,-1.8
2016-11-19T06:48:40.563Z,-1.86
2016-11-19T06:49:40.563Z,-1.88
2016-11-19T06:50:40.535Z,-1.89
2016-11-19T06:51:40.540Z,-1.88
2016-11-19T06:52:40.487Z,-1.83
2016-11-19T06:53:40.490Z,-1.89
2016-11-19T06:54:40.461Z,-1.86
2016-11-19T06:55:40.453Z,-1.83
2016-11-19T06:56:40.438Z,-1.65
2016-11-19T06:57:40.427Z,-1.64
2016-11-19T06:58:40.415Z,-1.8
2016-11-19T06:59:40.389Z,-1.65
2016-11-19T07:00:40.363Z,-1.65
2016-11-19T07:01:40.320Z,-1.67
2016-11-19T07:02:40.315Z,-1.64
2016-11-19T07:03:40.610Z,-1.71
2016-11-19T07:04:40.285Z,-1.64
2016-11-19T07:05:40.258Z,-1.74
2016-11-19T07:06:40.238Z,-1.75
2016-11-19T07:07:40.214Z,-1.7
2016-11-19T07:08:40.231Z,-1.57
2016-11-19T07:09:40.187Z,-1.62
2016-11-19T07:10:40.167Z,-1.61
2016-11-19T07:11:40.165Z,-1.77
2016-11-19T07:12:40.148Z,-1.54
2016-11-19T07:13:40.140Z,-1.54
2016-11-19T07:14:40.100Z,-1.64
2016-11-19T07:15:40.075Z,-1.82
2016-11-19T07:16:40.096Z,-1.85
2016-11-19T07:17:40.037Z,-1.64
2016-11-19T07:18:40.046Z,-1.65
2016-11-19T07:19:40.020Z,-1.61
2016-11-19T07:20:40.002Z,-1.57
2016-11-19T07:21:39.989Z,-1.46
2016-11-19T07:22:40.025Z,-1.47
2016-11-19T07:23:39.962Z,-1.38
2016-11-19T07:24:39.945Z,-1.33
2016-11-19T07:25:39.898Z,-1.43
2016-11-19T07:26:39.907Z,-1.41
2016-11-19T07:27:39.883Z,-1.54
2016-11-19T07:28:39.858Z,-1.51
2016-11-19T07:29:39.825Z,-1.46
2016-11-19T07:30:39.822Z,-1.35
2016-11-19T07:31:39.824Z,-1.33
2016-11-19T07:32:39.791Z,-1.39
2016-11-19T07:33:39.774Z,-1.38
2016-11-19T07:34:39.750Z,-1.62
2016-11-19T07:35:39.748Z,-1.43
2016-11-19T07:36:39.731Z,-1.49
2016-11-19T07:37:39.709Z,-1.47
2016-11-19T07:38:39.698Z,-1.38
2016-11-19T07:39:39.655Z,-1.33
2016-11-19T07:40:39.960Z,-1.41
2016-11-19T07:41:39.637Z,-1.39
2016-11-19T07:42:39.622Z,-1.21
2016-11-19T07:43:39.608Z,-1.28
2016-11-19T07:44:39.603Z,-1.43
2016-11-19T07:45:39.569Z,-1.29
2016-11-19T07:46:39.569Z,-1.28
2016-11-19T07:47:39.518Z,-1.11
2016-11-19T07:48:39.518Z,-1.18
2016-11-19T07:49:39.522Z,-1.29
2016-11-19T07:50:39.477Z,-1.39
2016-11-19T07:51:39.476Z,-1.35
2016-11-19T07:52:39.469Z,-1.44
2016-11-19T07:53:39.443Z,-1.33
2016-11-19T07:54:39.410Z,-1.39
2016-11-19T07:55:39.397Z,-1.41
2016-11-19T07:56:39.388Z,-1.59
2016-11-19T07:57:39.366Z,-1.68
2016-11-19T07:58:39.338Z,-1.46
2016-11-19T07:59:39.342Z,-1.23
2016-11-19T08:00:39.323Z,-1.08
2016-11-19T08:01:39.290Z,-1.14
2016-11-19T08:02:39.298Z,-1.36
2016-11-19T08:03:39.269Z,-1.25
2016-11-19T08:04:39.262Z,-1.29
2016-11-19T08:05:39.236Z,-1.39
2016-11-19T08:06:39.236Z,-1.43
2016-11-19T08:07:39.201Z,-1.32
2016-11-19T08:08:39.183Z,-1.29
2016-11-19T08:09:39.216Z,-1.17
2016-11-19T08:10:39.149Z,-1.36
2016-11-19T08:11:39.151Z,-1.23
2016-11-19T08:12:39.114Z,-1.07
2016-11-19T08:13:39.114Z,-1.29
2016-11-19T08:14:39.113Z,-1.29
2016-11-19T08:15:39.372Z,-1.23
2016-11-19T08:16:39.045Z,-1.18
2016-11-19T08:17:39.045Z,-0.99
2016-11-19T08:18:39.036Z,-0.95
2016-11-19T08:19:39.023Z,-0.95
2016-11-19T08:20:38.988Z,-1.11
2016-11-19T08:21:38.970Z,-1.07
2016-11-19T08:22:38.945Z,-1.21
2016-11-19T08:23:38.935Z,-1.29
2016-11-19T08:24:38.937Z,-1.11
2016-11-19T08:25:38.913Z,-1.18
2016-11-19T08:26:38.896Z,-0.96
2016-11-19T08:27:38.869Z,-0.9
2016-11-19T08:28:38.871Z,-0.76
2016-11-19T08:29:38.858Z,-0.76
2016-11-19T08:30:38.818Z,-0.58
2016-11-19T08:31:38.818Z,-0.58
2016-11-19T08:32:38.801Z,-0.6
2016-11-19T08:33:38.822Z,-0.56
2016-11-19T08:34:38.767Z,-0.62
2016-11-19T08:35:38.768Z,-0.71
2016-11-19T08:36:38.767Z,-0.92
2016-11-19T08:37:38.742Z,-0.95
2016-11-19T08:38:38.727Z,-0.92
2016-11-19T08:39:38.705Z,-1.11
2016-11-19T08:40:38.660Z,-1.1
2016-11-19T08:41:38.663Z,-1.1
2016-11-19T08:42:38.641Z,-1.05
2016-11-19T08:43:38.631Z,-1
2016-11-19T08:44:38.629Z,-1.08
2016-11-19T08:45:38.588Z,-1.05
2016-11-19T08:46:38.584Z,-1.21
2016-11-19T08:47:38.580Z,-1.28
2016-11-19T08:48:38.568Z,-1.08
2016-11-19T08:49:38.523Z,-1.05
2016-11-19T08:50:38.521Z,-1.13
2016-11-19T08:51:38.517Z,-1.11
2016-11-19T08:52:38.477Z,-1.18
2016-11-19T08:53:38.473Z,-1.18
2016-11-19T08:54:38.447Z,-1.11
2016-11-19T08:55:38.442Z,-1.35
2016-11-19T08:56:38.465Z,-0.92
2016-11-19T08:57:38.408Z,-0.93
2016-11-19T08:58:38.392Z,-0.83
2016-11-19T08:59:38.386Z,-0.7
2016-11-19T09:00:38.373Z,-0.71
2016-11-19T09:01:38.350Z,-0.76
2016-11-19T09:02:38.336Z,-0.78
2016-11-19T09:03:38.319Z,-0.73
2016-11-19T09:04:38.288Z,-0.59
2016-11-19T09:05:38.280Z,-0.55
2016-11-19T09:06:38.269Z,-0.35
2016-11-19T09:07:38.236Z,-0.14
2016-11-19T09:08:38.246Z,-0.16
2016-11-19T09:09:38.212Z,-0.16
2016-11-19T09:10:38.189Z,-0.53
2016-11-19T09:11:38.178Z,-1.02
2016-11-19T09:12:38.176Z,-1.35
2016-11-19T09:13:38.160Z,-1.15
2016-11-19T09:14:38.155Z,-0.99
2016-11-19T09:15:38.128Z,-0.76
2016-11-19T09:16:38.119Z,-0.78
2016-11-19T09:17:38.094Z,-0.59
2016-11-19T09:18:38.099Z,-0.5
2016-11-19T09:19:38.068Z,-0.99
2016-11-19T09:20:38.052Z,-0.96
2016-11-19T09:21:38.046Z,-0.96
2016-11-19T09:22:38.019Z,-0.99
2016-11-19T09:23:37.992Z,-0.92
2016-11-19T09:24:37.985Z,-1.2
2016-11-19T09:25:37.983Z,-0.93
2016-11-19T09:26:37.975Z,-0.83
2016-11-19T09:27:37.952Z,-0.89
2016-11-19T09:28:37.921Z,-0.92
2016-11-19T09:29:37.914Z,-0.73
2016-11-19T09:30:37.905Z,-0.62
2016-11-19T09:31:37.895Z,-0.67
2016-11-19T09:32:37.861Z,-0.7
2016-11-19T09:33:37.854Z,-0.47
2016-11-19T09:34:37.858Z,-0.27
2016-11-19T09:35:37.837Z,0.13
2016-11-19T09:36:37.807Z,-0.08
2016-11-19T09:37:37.801Z,-0.37
2016-11-19T09:38:37.772Z,-0.41
2016-11-19T09:39:37.751Z,-0.02
2016-11-19T09:40:37.742Z,-0.03
2016-11-19T09:41:37.748Z,0.04
2016-11-19T09:42:37.700Z,0.34
2016-11-19T09:43:37.699Z,0.12
2016-11-19T09:44:37.695Z,-0.02
2016-11-19T09:45:37.688Z,0.07
2016-11-19T09:46:37.660Z,-0.01
2016-11-19T09:47:37.647Z,-0.3
2016-11-19T09:48:37.636Z,-0.31
2016-11-19T09:49:37.626Z,-0.12
2016-11-19T09:50:37.579Z,-0.17
2016-11-19T09:51:37.574Z,-0.21
2016-11-19T09:52:37.559Z,-0.34
2016-11-19T09:53:37.562Z,-0.27
2016-11-19T09:54:37.548Z,-0.5
2016-11-19T09:55:37.497Z,-0.45
2016-11-19T09:56:37.496Z,-0.41
2016-11-19T09:57:37.473Z,-0.35
2016-11-19T09:58:37.473Z,-0.31
2016-11-19T09:59:37.447Z,-0.26
2016-11-19T10:00:37.432Z,-0.37
2016-11-19T10:01:37.413Z,-0.52
2016-11-19T10:02:37.402Z,-0.73
2016-11-19T10:03:37.388Z,-0.8
2016-11-19T10:04:37.389Z,-0.92
2016-11-19T10:05:37.379Z,-0.76
2016-11-19T10:06:37.359Z,-0.86
2016-11-19T10:07:37.319Z,-0.99
2016-11-19T10:08:37.292Z,-1.02
2016-11-19T10:09:37.280Z,-0.97
2016-11-19T10:10:37.281Z,-0.86
2016-11-19T10:11:37.266Z,-0.8
2016-11-19T10:12:37.235Z,-0.76
2016-11-19T10:13:37.208Z,-0.73
2016-11-19T10:14:37.201Z,-0.44
2016-11-19T10:15:37.206Z,-0.38
2016-11-19T10:16:37.174Z,-0.39
2016-11-19T10:17:37.159Z,-0.34
2016-11-19T10:18:37.144Z,-0.32
2016-11-19T10:19:37.115Z,-0.42
2016-11-19T10:20:37.134Z,-0.5
2016-11-19T10:21:37.101Z,-0.49
2016-11-19T10:22:37.070Z,-0.39
2016-11-19T10:23:37.043Z,-0.32
2016-11-19T10:24:37.027Z,-0.39
2016-11-19T10:25:37.035Z,-0.47
2016-11-19T10:26:37.016Z,-0.44
2016-11-19T10:27:37.018Z,-0.39
2016-11-19T10:28:36.977Z,-0.13
2016-11-19T10:29:36.963Z,-0.05
2016-11-19T10:30:36.954Z,-0.32
2016-11-19T10:31:36.943Z,-0.9
2016-11-19T10:32:36.928Z,-0.97
2016-11-19T10:33:36.907Z,-0.95
2016-11-19T10:34:36.889Z,-1.11
2016-11-19T10:35:36.866Z,-1.14
2016-11-19T10:36:36.866Z,-1.35
2016-11-19T10:37:36.832Z,-1.49
2016-11-19T10:38:36.818Z,-2.04
2016-11-19T10:39:36.797Z,-2.61
2016-11-19T10:40:36.764Z,-2.95
2016-11-19T10:41:36.759Z,-2.8
2016-11-19T10:42:36.751Z,-2.76
2016-11-19T10:43:36.735Z,-2.98
2016-11-19T10:44:36.723Z,-2.84
2016-11-19T10:45:36.706Z,-2.58
2016-11-19T10:46:36.689Z,-2.22
2016-11-19T10:47:36.669Z,-2.32
2016-11-19T10:48:36.626Z,-2.53
2016-11-19T10:49:36.634Z,-2.58
2016-11-19T10:50:36.597Z,-2.62
2016-11-19T10:51:36.593Z,-2.62
2016-11-19T10:52:36.554Z,-2.4
2016-11-19T10:53:36.560Z,-2.21
2016-11-19T10:54:36.554Z,-2.59
2016-11-19T10:55:36.502Z,-2.74
2016-11-19T10:56:36.486Z,-2.5
2016-11-19T10:57:36.477Z,-2.33
2016-11-19T10:58:36.465Z,-2.32
2016-11-19T10:59:36.457Z,-2.06
2016-11-19T11:00:36.423Z,-1.93
2016-11-19T11:01:36.413Z,-1.88
2016-11-19T11:02:36.396Z,-1.75
2016-11-19T11:03:36.366Z,-1.89
2016-11-19T11:04:36.357Z,-1.88
2016-11-19T11:05:36.344Z,-1.9
2016-11-19T11:06:36.345Z,-1.98
2016-11-19T11:07:36.325Z,-2.18
2016-11-19T11:08:36.292Z,-2.01
2016-11-19T11:09:36.290Z,-2.06
2016-11-19T11:10:36.273Z,-1.95
2016-11-19T11:11:36.552Z,-2
2016-11-19T11:12:36.218Z,-2.03
2016-11-19T11:13:36.205Z,-2.11
2016-11-19T11:14:36.182Z,-2.58
2016-11-19T11:15:36.160Z,-2.77
2016-11-19T11:16:36.171Z,-2.89
2016-11-19T11:17:36.152Z,-2.72
2016-11-19T11:18:36.120Z,-2.65
2016-11-19T11:19:36.102Z,-2.65
2016-11-19T11:20:36.065Z,-2.61
2016-11-19T11:21:36.062Z,-2.37
2016-11-19T11:22:36.046Z,-2.24
2016-11-19T11:23:36.034Z,-2.25
2016-11-19T11:24:36.005Z,-2.07
2016-11-19T11:25:35.991Z,-1.98
2016-11-19T11:26:35.964Z,-1.92
2016-11-19T11:27:35.944Z,-1.9
2016-11-19T11:28:35.938Z,-1.93
2016-11-19T11:29:35.922Z,-1.7
2016-11-19T11:30:35.891Z,-1.68
2016-11-19T11:31:35.882Z,-2.03
2016-11-19T11:32:35.876Z,-2.55
2016-11-19T11:33:35.872Z,-2.79
2016-11-19T11:34:35.845Z,-3.28
2016-11-19T11:35:35.827Z,-4.01
2016-11-19T11:36:35.812Z,-4.45
2016-11-19T11:37:35.768Z,-4.74
2016-11-19T11:38:35.768Z,-4.87
2016-11-19T11:39:35.734Z,-4.76
2016-11-19T11:40:35.772Z,-4.77
2016-11-19T11:41:35.730Z,-4.77
2016-11-19T11:42:35.695Z,-4.76
2016-11-19T11:43:35.671Z,-4.76
2016-11-19T11:44:35.654Z,-5.02
2016-11-19T11:45:35.636Z,-5.23
2016-11-19T11:46:35.634Z,-5.27
2016-11-19T11:47:35.614Z,-5.13
2016-11-19T11:48:35.575Z,-5.06
2016-11-19T11:49:35.579Z,-5.09
2016-11-19T11:50:35.528Z,-5.34
2016-11-19T11:51:35.514Z,-5.28
2016-11-19T11:52:35.787Z,-5.38
2016-11-19T11:53:35.475Z,-5.34
2016-11-19T11:54:35.460Z,-5.51
2016-11-19T11:55:35.517Z,-5.8
2016-11-19T11:56:35.416Z,-5.9
2016-11-19T11:57:35.393Z,-5.81
2016-11-19T11:58:35.372Z,-5.84
2016-11-19T11:59:35.347Z,-5.78
2016-11-19T12:00:35.333Z,-5.71
2016-11-19T12:01:35.321Z,-5.75
2016-11-19T12:02:35.294Z,-5.8
2016-11-19T12:03:35.269Z,-5.99
2016-11-19T12:04:35.265Z,-5.98
2016-11-19T12:05:35.295Z,-6.02
2016-11-19T12:06:35.215Z,-6.08
2016-11-19T12:07:35.199Z,-6.08
2016-11-19T12:08:35.168Z,-6.03
2016-11-19T12:09:35.138Z,-6.09
2016-11-19T12:10:35.128Z,-6.26
2016-11-19T12:11:35.103Z,-6.34
2016-11-19T12:12:35.100Z,-6.55
2016-11-19T12:13:35.063Z,-6.63
2016-11-19T12:14:35.021Z,-6.77
2016-11-19T12:15:35.024Z,-6.84
2016-11-19T12:16:35.010Z,-6.67
2016-11-19T12:17:34.973Z,-6.66
2016-11-19T12:18:34.941Z,-6.69
2016-11-19T12:19:34.926Z,-6.63
2016-11-19T12:20:34.906Z,-6.75
2016-11-19T12:21:34.866Z,-6.78
2016-11-19T12:22:34.862Z,-6.77
2016-11-19T12:23:34.828Z,-6.74
2016-11-19T12:24:34.833Z,-6.77
2016-11-19T12:25:34.787Z,-6.79
2016-11-19T12:26:34.749Z,-6.71
2016-11-19T12:27:34.728Z,-6.84
2016-11-19T12:28:34.739Z,-7
2016-11-19T12:29:34.712Z,-7.11
2016-11-19T12:30:34.677Z,-7.1
2016-11-19T12:31:34.656Z,-7.14
2016-11-19T12:32:34.643Z,-7.13
2016-11-19T12:33:34.621Z,-7.11
2016-11-19T12:34:34.595Z,-7.1
2016-11-19T12:35:34.547Z,-7.16
2016-11-19T12:36:34.522Z,-7.16
2016-11-19T12:37:34.515Z,-7.27
2016-11-19T12:38:34.474Z,-7.23
2016-11-19T12:39:34.458Z,-7.23
2016-11-19T12:40:34.435Z,-7.23
2016-11-19T12:41:34.420Z,-7.35
2016-11-19T12:42:34.401Z,-7.29
2016-11-19T12:43:34.371Z,-7.35
2016-11-19T12:44:34.354Z,-7.27
2016-11-19T12:45:34.320Z,-7.32
2016-11-19T12:46:34.308Z,-7.32
2016-11-19T12:47:34.311Z,-7.45
2016-11-19T12:48:34.253Z,-7.47
2016-11-19T12:49:34.248Z,-7.45
2016-11-19T12:50:34.235Z,-7.46
2016-11-19T12:51:34.180Z,-7.47
2016-11-19T12:52:34.175Z,-7.59
2016-11-19T12:53:34.140Z,-7.6
2016-11-19T12:54:34.110Z,-7.47
2016-11-19T12:55:34.102Z,-7.5